Airfield :







YOU CAN JOIN US ON...

 
LOGIN :

Register | Disclaimer

   EN    FR    IT 

 









Legend :    VFR   Marginal VFR   IFR   Intensive IFR   Very Intensive IFR
Visi :
Ceiling :
>= 8 km
>= 3000ft
5 to 8 km
1000 to 3000 ft
1500m to 5 km
500 to 1000 ft
800 to 1500m
200 to 500 ft
< 800m
< 200 ft
Symbols :   Thunderstorms  Fog  Heavy snow  Heavy precipitations  Wind > 20 kt






- Airport Elevation : 586 ft
- IATA code : YRJ


CYRJ - Roberval

CURRENT METAR :
  • 121800Z 25010KT 25SM FEW030 M15/M23 A3049 RMK SC1 SC TR SLP344

EXPIRED METARs :
  • 121700Z 25006KT 25SM FEW020 FEW030 M16/M24 A3049 RMK CF1SC1 CF TR SC TR SLP346
  • 121600Z 27007KT 25SM FEW020 FEW030 M17/M24 A3050 RMK CF1SC1 CF TR SC TR SLP348

TAF TAF CYRJ
Valid from the 12 at 13:00 until the 13 at 01:00 UTC


121238Z 1213/1301 24005KT P6SM FEW030
FM130000 21005KT P6SM BKN030 OVC200 RMK NXT FCST BY 122000Z



MET'MAP, your aeronautical weather chart ! - Copyright ORBIFLY December 2007 - Disclaimer

ORBIFLY MET'MAP TEAM :

Programming & Development : Alexandra Zaïnal
Concept & original design : Baudouin d'Aumeries
Assistance for programming : Marc-Olivier Méhu
Technical & hardware support : Manuel Goepfert

Contact : metmap@orbifly.com




SOURCES & CREDITS :

   NOAA